sensor_id;sensor_type;location;lat;lon;timestamp;pressure;altitude;pressure_sealevel;temperature;humidity
37852;BME280;23691;52.486;4.650;2023-04-25T00:00:43;101161.69;;;8.06;67.62
37852;BME280;23691;52.486;4.650;2023-04-25T00:03:08;101164.06;;;7.99;67.70
37852;BME280;23691;52.486;4.650;2023-04-25T00:05:34;101161.38;;;7.99;67.70
37852;BME280;23691;52.486;4.650;2023-04-25T00:08:02;101157.47;;;8.03;67.66
37852;BME280;23691;52.486;4.650;2023-04-25T00:10:28;101156.66;;;8.03;67.81
37852;BME280;23691;52.486;4.650;2023-04-25T00:12:53;101165.19;;;7.96;67.65
37852;BME280;23691;52.486;4.650;2023-04-25T00:15:19;101153.69;;;7.96;67.72
37852;BME280;23691;52.486;4.650;2023-04-25T00:17:44;101152.97;;;7.94;67.67
37852;BME280;23691;52.486;4.650;2023-04-25T00:20:11;101161.97;;;7.93;67.92
37852;BME280;23691;52.486;4.650;2023-04-25T00:22:37;101161.25;;;7.91;67.61
37852;BME280;23691;52.486;4.650;2023-04-25T00:25:04;101165.88;;;7.89;67.57
37852;BME280;23691;52.486;4.650;2023-04-25T00:27:30;101163.78;;;7.83;67.74
37852;BME280;23691;52.486;4.650;2023-04-25T00:29:55;101172.03;;;7.80;67.39
37852;BME280;23691;52.486;4.650;2023-04-25T00:32:21;101175.41;;;7.82;66.87
37852;BME280;23691;52.486;4.650;2023-04-25T00:34:46;101181.97;;;7.78;67.07
37852;BME280;23691;52.486;4.650;2023-04-25T00:37:11;101173.97;;;7.78;66.59
37852;BME280;23691;52.486;4.650;2023-04-25T00:39:37;101168.94;;;7.74;66.62
37852;BME280;23691;52.486;4.650;2023-04-25T00:42:03;101174.97;;;7.77;66.66
37852;BME280;23691;52.486;4.650;2023-04-25T00:44:29;101184.09;;;7.74;66.66
37852;BME280;23691;52.486;4.650;2023-04-25T00:46:56;101178.88;;;7.72;66.54
37852;BME280;23691;52.486;4.650;2023-04-25T00:49:21;101182.66;;;7.70;66.38
37852;BME280;23691;52.486;4.650;2023-04-25T00:51:47;101177.75;;;7.65;66.41
37852;BME280;23691;52.486;4.650;2023-04-25T00:54:13;101182.94;;;7.67;66.14
37852;BME280;23691;52.486;4.650;2023-04-25T00:56:39;101182.66;;;7.70;66.33
37852;BME280;23691;52.486;4.650;2023-04-25T00:59:05;101182.53;;;7.71;66.32
37852;BME280;23691;52.486;4.650;2023-04-25T01:01:31;101186.75;;;7.74;66.21
37852;BME280;23691;52.486;4.650;2023-04-25T01:03:58;101186.88;;;7.72;66.41
37852;BME280;23691;52.486;4.650;2023-04-25T01:06:23;101172.59;;;7.73;66.53
37852;BME280;23691;52.486;4.650;2023-04-25T01:08:49;101184.78;;;7.76;66.87
37852;BME280;23691;52.486;4.650;2023-04-25T01:11:14;101183.56;;;7.80;67.02
37852;BME280;23691;52.486;4.650;2023-04-25T01:13:40;101178.91;;;7.82;67.37
37852;BME280;23691;52.486;4.650;2023-04-25T01:16:05;101189.16;;;7.87;67.21
37852;BME280;23691;52.486;4.650;2023-04-25T01:18:30;101187.31;;;7.87;67.50
37852;BME280;23691;52.486;4.650;2023-04-25T01:21:04;101196.19;;;7.88;67.67
37852;BME280;23691;52.486;4.650;2023-04-25T01:23:32;101195.59;;;7.84;67.81
37852;BME280;23691;52.486;4.650;2023-04-25T01:25:58;101198.84;;;7.88;67.91
37852;BME280;23691;52.486;4.650;2023-04-25T01:28:23;101198.16;;;7.95;67.84
37852;BME280;23691;52.486;4.650;2023-04-25T01:30:49;101190.69;;;7.99;67.83
37852;BME280;23691;52.486;4.650;2023-04-25T01:33:16;101194.06;;;8.01;68.06
37852;BME280;23691;52.486;4.650;2023-04-25T01:35:42;101189.44;;;8.03;68.17
37852;BME280;23691;52.486;4.650;2023-04-25T01:38:07;101188.03;;;7.99;68.20
37852;BME280;23691;52.486;4.650;2023-04-25T01:40:33;101184.53;;;7.99;68.25
37852;BME280;23691;52.486;4.650;2023-04-25T01:42:59;101195.91;;;8.01;68.41
37852;BME280;23691;52.486;4.650;2023-04-25T01:45:25;101204.84;;;8.00;68.62
37852;BME280;23691;52.486;4.650;2023-04-25T01:47:50;101194.19;;;8.00;68.63
37852;BME280;23691;52.486;4.650;2023-04-25T01:50:18;101199.13;;;8.04;68.64
37852;BME280;23691;52.486;4.650;2023-04-25T01:52:44;101207.81;;;8.06;68.57
37852;BME280;23691;52.486;4.650;2023-04-25T01:55:10;101219.06;;;8.00;68.45
37852;BME280;23691;52.486;4.650;2023-04-25T01:57:35;101223.38;;;7.91;69.01
37852;BME280;23691;52.486;4.650;2023-04-25T02:00:03;101225.19;;;7.91;69.10
37852;BME280;23691;52.486;4.650;2023-04-25T02:02:30;101223.78;;;7.87;69.14
37852;BME280;23691;52.486;4.650;2023-04-25T02:04:55;101228.69;;;7.82;69.28
37852;BME280;23691;52.486;4.650;2023-04-25T02:07:21;101228.81;;;7.70;69.28
37852;BME280;23691;52.486;4.650;2023-04-25T02:09:47;101222.19;;;7.65;69.15
37852;BME280;23691;52.486;4.650;2023-04-25T02:12:12;101217.25;;;7.60;68.91
37852;BME280;23691;52.486;4.650;2023-04-25T02:14:37;101222.88;;;7.57;68.86
37852;BME280;23691;52.486;4.650;2023-04-25T02:17:03;101225.81;;;7.54;68.85
37852;BME280;23691;52.486;4.650;2023-04-25T02:19:28;101226.25;;;7.59;68.70
37852;BME280;23691;52.486;4.650;2023-04-25T02:21:54;101213.75;;;7.60;68.51
37852;BME280;23691;52.486;4.650;2023-04-25T02:24:19;101215.47;;;7.61;67.97
37852;BME280;23691;52.486;4.650;2023-04-25T02:26:45;101221.75;;;7.60;67.92
37852;BME280;23691;52.486;4.650;2023-04-25T02:29:12;101225.53;;;7.57;67.59
37852;BME280;23691;52.486;4.650;2023-04-25T02:31:38;101226.66;;;7.55;67.59
37852;BME280;23691;52.486;4.650;2023-04-25T02:34:03;101229.31;;;7.55;67.36
37852;BME280;23691;52.486;4.650;2023-04-25T02:36:29;101228.34;;;7.56;67.07
37852;BME280;23691;52.486;4.650;2023-04-25T02:38:57;101227.63;;;7.53;66.76
37852;BME280;23691;52.486;4.650;2023-04-25T02:41:22;101228.88;;;7.49;66.81
37852;BME280;23691;52.486;4.650;2023-04-25T02:43:47;101224.66;;;7.47;66.79
37852;BME280;23691;52.486;4.650;2023-04-25T02:46:13;101237.25;;;7.45;66.84
37852;BME280;23691;52.486;4.650;2023-04-25T02:48:38;101239.81;;;7.46;66.73
37852;BME280;23691;52.486;4.650;2023-04-25T02:51:04;101229.59;;;7.51;66.49
37852;BME280;23691;52.486;4.650;2023-04-25T02:53:29;101231.13;;;7.54;66.30
37852;BME280;23691;52.486;4.650;2023-04-25T02:55:54;101231.13;;;7.54;66.54
37852;BME280;23691;52.486;4.650;2023-04-25T02:58:23;101231.13;;;7.54;66.63
37852;BME280;23691;52.486;4.650;2023-04-25T03:00:48;101237.41;;;7.53;66.76
37852;BME280;23691;52.486;4.650;2023-04-25T03:03:14;101243.72;;;7.52;66.88
37852;BME280;23691;52.486;4.650;2023-04-25T03:05:42;101249.19;;;7.50;66.88
37852;BME280;23691;52.486;4.650;2023-04-25T03:08:07;101250.28;;;7.48;67.20
37852;BME280;23691;52.486;4.650;2023-04-25T03:10:33;101267.78;;;7.41;67.48
37852;BME280;23691;52.486;4.650;2023-04-25T03:12:58;101269.44;;;7.32;67.82
37852;BME280;23691;52.486;4.650;2023-04-25T03:15:23;101263.94;;;7.24;67.92
37852;BME280;23691;52.486;4.650;2023-04-25T03:17:49;101265.50;;;7.26;68.07
37852;BME280;23691;52.486;4.650;2023-04-25T03:20:15;101277.53;;;7.30;67.96
37852;BME280;23691;52.486;4.650;2023-04-25T03:22:41;101281.91;;;7.31;67.92
37852;BME280;23691;52.486;4.650;2023-04-25T03:25:06;101299.22;;;7.26;68.35
37852;BME280;23691;52.486;4.650;2023-04-25T03:27:32;101293.16;;;7.14;68.63
37852;BME280;23691;52.486;4.650;2023-04-25T03:29:57;101290.19;;;7.07;69.00
37852;BME280;23691;52.486;4.650;2023-04-25T03:32:22;101270.38;;;7.00;69.36
37852;BME280;23691;52.486;4.650;2023-04-25T03:34:48;101272.72;;;6.94;69.62
37852;BME280;23691;52.486;4.650;2023-04-25T03:37:13;101261.63;;;6.88;69.63
37852;BME280;23691;52.486;4.650;2023-04-25T03:39:38;101253.78;;;6.87;69.64
37852;BME280;23691;52.486;4.650;2023-04-25T03:42:04;101254.38;;;6.91;69.60
37852;BME280;23691;52.486;4.650;2023-04-25T03:44:29;101259.41;;;6.94;69.46
37852;BME280;23691;52.486;4.650;2023-04-25T03:46:57;101254.69;;;6.97;69.55
37852;BME280;23691;52.486;4.650;2023-04-25T03:49:22;101246.31;;;7.02;69.30
37852;BME280;23691;52.486;4.650;2023-04-25T03:51:48;101252.38;;;7.04;69.05
37852;BME280;23691;52.486;4.650;2023-04-25T03:54:13;101254.03;;;7.05;69.24
37852;BME280;23691;52.486;4.650;2023-04-25T03:56:38;101262.72;;;7.07;69.23
37852;BME280;23691;52.486;4.650;2023-04-25T03:59:04;101260.53;;;7.12;69.00
37852;BME280;23691;52.486;4.650;2023-04-25T04:01:29;101258.56;;;7.14;69.14
37852;BME280;23691;52.486;4.650;2023-04-25T04:03:55;101263.75;;;7.16;69.23
37852;BME280;23691;52.486;4.650;2023-04-25T04:06:20;101263.75;;;7.16;69.29
37852;BME280;23691;52.486;4.650;2023-04-25T04:08:46;101260.69;;;7.20;69.43
37852;BME280;23691;52.486;4.650;2023-04-25T04:11:11;101260.41;;;7.23;69.49
37852;BME280;23691;52.486;4.650;2023-04-25T04:13:37;101266.19;;;7.28;69.47
37852;BME280;23691;52.486;4.650;2023-04-25T04:16:02;101270.28;;;7.32;69.47
37852;BME280;23691;52.486;4.650;2023-04-25T04:18:29;101268.44;;;7.33;69.68
37852;BME280;23691;52.486;4.650;2023-04-25T04:20:55;101272.22;;;7.30;69.72
37852;BME280;23691;52.486;4.650;2023-04-25T04:23:20;101269.44;;;7.32;69.91
37852;BME280;23691;52.486;4.650;2023-04-25T04:25:46;101268.22;;;7.36;70.01
37852;BME280;23691;52.486;4.650;2023-04-25T04:28:12;101272.81;;;7.34;70.06
37852;BME280;23691;52.486;4.650;2023-04-25T04:30:39;101283.03;;;7.29;70.40
37852;BME280;23691;52.486;4.650;2023-04-25T04:33:04;101275.88;;;7.29;70.59
37852;BME280;23691;52.486;4.650;2023-04-25T04:35:29;101279.81;;;7.35;70.37
37852;BME280;23691;52.486;4.650;2023-04-25T04:37:55;101284.03;;;7.38;70.29
37852;BME280;23691;52.486;4.650;2023-04-25T04:40:21;101287.28;;;7.41;70.41
37852;BME280;23691;52.486;4.650;2023-04-25T04:42:47;101288.97;;;7.42;70.21
37852;BME280;23691;52.486;4.650;2023-04-25T04:45:13;101295.28;;;7.41;70.14
37852;BME280;23691;52.486;4.650;2023-04-25T04:47:39;101298.66;;;7.43;70.10
37852;BME280;23691;52.486;4.650;2023-04-25T04:50:09;101301.88;;;7.47;69.91
37852;BME280;23691;52.486;4.650;2023-04-25T04:52:35;101298.66;;;7.43;69.50
37852;BME280;23691;52.486;4.650;2023-04-25T04:55:01;101302.38;;;7.41;69.30
37852;BME280;23691;52.486;4.650;2023-04-25T04:57:28;101300.72;;;7.40;69.09
37852;BME280;23691;52.486;4.650;2023-04-25T04:59:53;101313.91;;;7.41;68.98
37852;BME280;23691;52.486;4.650;2023-04-25T05:02:18;101311.25;;;7.41;68.91
37852;BME280;23691;52.486;4.650;2023-04-25T05:04:44;101319.66;;;7.46;68.41
37852;BME280;23691;52.486;4.650;2023-04-25T05:07:10;101318.56;;;7.49;68.45
37852;BME280;23691;52.486;4.650;2023-04-25T05:09:35;101326.00;;;7.55;68.71
37852;BME280;23691;52.486;4.650;2023-04-25T05:12:00;101325.09;;;7.66;68.12
37852;BME280;23691;52.486;4.650;2023-04-25T05:14:26;101333.97;;;7.76;68.02
37852;BME280;23691;52.486;4.650;2023-04-25T05:16:51;101338.06;;;7.80;68.12
37852;BME280;23691;52.486;4.650;2023-04-25T05:19:17;101339.75;;;7.91;67.89
37852;BME280;23691;52.486;4.650;2023-04-25T05:21:42;101338.38;;;7.96;67.70
37852;BME280;23691;52.486;4.650;2023-04-25T05:24:08;101337.97;;;8.01;67.67
37852;BME280;23691;52.486;4.650;2023-04-25T05:26:33;101342.06;;;8.05;67.47
37852;BME280;23691;52.486;4.650;2023-04-25T05:28:59;101338.41;;;8.06;67.43
37852;BME280;23691;52.486;4.650;2023-04-25T05:31:25;101347.38;;;8.05;67.10
37852;BME280;23691;52.486;4.650;2023-04-25T05:33:51;101350.19;;;8.04;66.87
37852;BME280;23691;52.486;4.650;2023-04-25T05:36:16;101352.56;;;8.07;66.78
37852;BME280;23691;52.486;4.650;2023-04-25T05:38:41;101351.44;;;8.09;66.19
37852;BME280;23691;52.486;4.650;2023-04-25T05:41:07;101354.81;;;8.11;66.07
37852;BME280;23691;52.486;4.650;2023-04-25T05:43:32;101363.41;;;8.15;65.69
37852;BME280;23691;52.486;4.650;2023-04-25T05:45:58;101364.38;;;8.14;65.48
37852;BME280;23691;52.486;4.650;2023-04-25T05:48:23;101367.88;;;8.14;65.22
37852;BME280;23691;52.486;4.650;2023-04-25T05:50:49;101367.19;;;8.12;65.00
37852;BME280;23691;52.486;4.650;2023-04-25T05:53:14;101369.41;;;8.17;65.07
37852;BME280;23691;52.486;4.650;2023-04-25T05:55:40;101372.41;;;8.24;64.63
37852;BME280;23691;52.486;4.650;2023-04-25T05:58:05;101375.06;;;8.24;64.88
37852;BME280;23691;52.486;4.650;2023-04-25T06:00:32;101388.78;;;8.19;64.83
37852;BME280;23691;52.486;4.650;2023-04-25T06:02:57;101393.13;;;8.10;64.66
37852;BME280;23691;52.486;4.650;2023-04-25T06:05:22;101396.50;;;8.12;64.06
37852;BME280;23691;52.486;4.650;2023-04-25T06:07:48;101396.38;;;8.24;64.12
37852;BME280;23691;52.486;4.650;2023-04-25T06:10:13;101395.16;;;8.37;63.91
37852;BME280;23691;52.486;4.650;2023-04-25T06:12:39;101398.16;;;8.54;63.76
37852;BME280;23691;52.486;4.650;2023-04-25T06:15:05;101401.97;;;8.71;63.10
37852;BME280;23691;52.486;4.650;2023-04-25T06:17:30;101408.47;;;8.88;62.61
37852;BME280;23691;52.486;4.650;2023-04-25T06:19:56;101399.22;;;9.01;62.41
37852;BME280;23691;52.486;4.650;2023-04-25T06:22:21;101413.25;;;9.13;61.78
37852;BME280;23691;52.486;4.650;2023-04-25T06:24:46;101414.38;;;9.11;61.48
37852;BME280;23691;52.486;4.650;2023-04-25T06:27:12;101418.72;;;9.02;61.05
37852;BME280;23691;52.486;4.650;2023-04-25T06:29:37;101411.84;;;9.09;60.81
37852;BME280;23691;52.486;4.650;2023-04-25T06:32:03;101415.94;;;9.13;60.37
37852;BME280;23691;52.486;4.650;2023-04-25T06:34:28;101416.91;;;9.12;60.15
37852;BME280;23691;52.486;4.650;2023-04-25T06:36:53;101433.06;;;9.11;59.83
37852;BME280;23691;52.486;4.650;2023-04-25T06:39:19;101419.56;;;9.02;59.66
37852;BME280;23691;52.486;4.650;2023-04-25T06:41:45;101422.22;;;9.02;59.71
37852;BME280;23691;52.486;4.650;2023-04-25T06:44:10;101422.66;;;9.17;59.46
37852;BME280;23691;52.486;4.650;2023-04-25T06:46:36;101428.97;;;9.36;59.13
37852;BME280;23691;52.486;4.650;2023-04-25T06:49:02;101429.94;;;9.44;58.62
37852;BME280;23691;52.486;4.650;2023-04-25T06:51:28;101425.59;;;9.43;58.66
37852;BME280;23691;52.486;4.650;2023-04-25T06:53:54;101433.44;;;9.45;58.23
37852;BME280;23691;52.486;4.650;2023-04-25T06:56:20;101433.91;;;9.40;57.60
37852;BME280;23691;52.486;4.650;2023-04-25T06:58:46;101439.66;;;9.45;57.80
37852;BME280;23691;52.486;4.650;2023-04-25T07:01:11;101436.81;;;9.47;57.48
37852;BME280;23691;52.486;4.650;2023-04-25T07:03:37;101436.97;;;9.55;57.16
37852;BME280;23691;52.486;4.650;2023-04-25T07:06:03;101445.94;;;9.64;57.17
37852;BME280;23691;52.486;4.650;2023-04-25T07:08:29;101440.97;;;9.79;57.06
37852;BME280;23691;52.486;4.650;2023-04-25T07:10:54;101455.78;;;9.73;57.28
37852;BME280;23691;52.486;4.650;2023-04-25T07:13:20;101445.53;;;9.59;57.90
37852;BME280;23691;52.486;4.650;2023-04-25T07:15:45;101460.16;;;9.45;58.12
37852;BME280;23691;52.486;4.650;2023-04-25T07:18:13;101456.81;;;9.33;58.69
37852;BME280;23691;52.486;4.650;2023-04-25T07:20:40;101458.47;;;9.15;58.77
37852;BME280;23691;52.486;4.650;2023-04-25T07:23:06;101464.66;;;9.06;59.19
37852;BME280;23691;52.486;4.650;2023-04-25T07:25:31;101466.06;;;9.00;59.27
37852;BME280;23691;52.486;4.650;2023-04-25T07:27:57;101468.31;;;9.05;59.03
37852;BME280;23691;52.486;4.650;2023-04-25T07:30:22;101468.63;;;9.11;58.94
37852;BME280;23691;52.486;4.650;2023-04-25T07:32:48;101472.69;;;9.25;58.71
37852;BME280;23691;52.486;4.650;2023-04-25T07:35:13;101471.41;;;9.49;58.47
37852;BME280;23691;52.486;4.650;2023-04-25T07:37:39;101473.78;;;9.52;58.05
37852;BME280;23691;52.486;4.650;2023-04-25T07:40:05;101471.69;;;9.55;57.92
37852;BME280;23691;52.486;4.650;2023-04-25T07:42:30;101483.34;;;9.64;57.75
37852;BME280;23691;52.486;4.650;2023-04-25T07:44:56;101490.63;;;9.72;57.23
37852;BME280;23691;52.486;4.650;2023-04-25T07:47:22;101490.50;;;9.73;55.98
37852;BME280;23691;52.486;4.650;2023-04-25T07:49:47;101484.16;;;9.74;55.52
37852;BME280;23691;52.486;4.650;2023-04-25T07:52:13;101493.88;;;9.75;55.13
37852;BME280;23691;52.486;4.650;2023-04-25T07:54:38;101491.03;;;9.86;54.42
37852;BME280;23691;52.486;4.650;2023-04-25T07:57:04;101497.88;;;10.08;54.46
37852;BME280;23691;52.486;4.650;2023-04-25T07:59:31;101495.66;;;10.51;53.74
37852;BME280;23691;52.486;4.650;2023-04-25T08:01:56;101503.66;;;10.79;54.14
37852;BME280;23691;52.486;4.650;2023-04-25T08:04:23;101514.25;;;10.98;54.45
37852;BME280;23691;52.486;4.650;2023-04-25T08:06:48;101510.81;;;11.06;55.13
37852;BME280;23691;52.486;4.650;2023-04-25T08:09:13;101510.44;;;11.01;55.41
37852;BME280;23691;52.486;4.650;2023-04-25T08:11:39;101524.03;;;10.89;56.20
37852;BME280;23691;52.486;4.650;2023-04-25T08:14:05;101522.28;;;10.70;55.92
37852;BME280;23691;52.486;4.650;2023-04-25T08:16:30;101526.75;;;10.52;56.11
37852;BME280;23691;52.486;4.650;2023-04-25T08:18:56;101530.00;;;10.46;55.65
37852;BME280;23691;52.486;4.650;2023-04-25T08:21:21;101537.91;;;10.47;55.12
37852;BME280;23691;52.486;4.650;2023-04-25T08:23:46;101546.88;;;10.56;54.63
37852;BME280;23691;52.486;4.650;2023-04-25T08:26:12;101558.38;;;10.66;53.43
37852;BME280;23691;52.486;4.650;2023-04-25T08:28:37;101567.56;;;10.64;52.70
37852;BME280;23691;52.486;4.650;2023-04-25T08:31:03;101555.00;;;10.64;52.25
37852;BME280;23691;52.486;4.650;2023-04-25T08:33:29;101559.63;;;10.72;52.07
37852;BME280;23691;52.486;4.650;2023-04-25T08:35:55;101571.41;;;10.79;51.91
37852;BME280;23691;52.486;4.650;2023-04-25T08:38:20;101564.75;;;10.93;51.81
37852;BME280;23691;52.486;4.650;2023-04-25T08:40:49;101572.81;;;11.11;51.58
37852;BME280;23691;52.486;4.650;2023-04-25T08:43:18;101572.13;;;11.27;51.48
37852;BME280;23691;52.486;4.650;2023-04-25T08:45:43;101560.81;;;11.33;51.69
37852;BME280;23691;52.486;4.650;2023-04-25T08:48:14;101569.91;;;11.22;51.71
37852;BME280;23691;52.486;4.650;2023-04-25T08:51:01;101577.78;;;11.06;52.04
37852;BME280;23691;52.486;4.650;2023-04-25T08:53:32;101586.16;;;10.93;52.08
37852;BME280;23691;52.486;4.650;2023-04-25T08:56:00;101585.34;;;10.83;52.58
37852;BME280;23691;52.486;4.650;2023-04-25T08:58:29;101585.81;;;10.78;52.93
37852;BME280;23691;52.486;4.650;2023-04-25T09:00:55;101591.00;;;10.80;53.11
37852;BME280;23691;52.486;4.650;2023-04-25T09:03:21;101593.56;;;10.71;53.54
37852;BME280;23691;52.486;4.650;2023-04-25T09:05:46;101601.59;;;10.71;53.56
37852;BME280;23691;52.486;4.650;2023-04-25T09:08:11;101603.28;;;10.72;53.71
37852;BME280;23691;52.486;4.650;2023-04-25T09:10:38;101604.97;;;10.73;53.83
37852;BME280;23691;52.486;4.650;2023-04-25T09:13:07;101600.03;;;10.79;53.86
37852;BME280;23691;52.486;4.650;2023-04-25T09:15:51;101600.97;;;10.87;53.54
37852;BME280;23691;52.486;4.650;2023-04-25T09:20:54;101614.06;;;10.90;53.29
37852;BME280;23691;52.486;4.650;2023-04-25T09:23:21;101613.06;;;10.91;52.81
37852;BME280;23691;52.486;4.650;2023-04-25T09:25:52;101609.50;;;11.01;52.49
37852;BME280;23691;52.486;4.650;2023-04-25T09:28:23;101612.47;;;11.25;52.39
37852;BME280;23691;52.486;4.650;2023-04-25T09:30:54;101622.59;;;11.49;51.97
37852;BME280;23691;52.486;4.650;2023-04-25T09:33:27;101639.78;;;11.74;52.00
37852;BME280;23691;52.486;4.650;2023-04-25T09:35:52;101639.38;;;11.51;52.96
37852;BME280;23691;52.486;4.650;2023-04-25T09:38:20;101643.38;;;11.20;52.28
37852;BME280;23691;52.486;4.650;2023-04-25T09:40:46;101637.13;;;11.01;52.29
37852;BME280;23691;52.486;4.650;2023-04-25T09:43:21;101641.38;;;10.94;51.66
37852;BME280;23691;52.486;4.650;2023-04-25T09:45:47;101634.63;;;10.90;51.35
37852;BME280;23691;52.486;4.650;2023-04-25T09:48:20;101638.00;;;10.92;51.35
37852;BME280;23691;52.486;4.650;2023-04-25T09:51:10;101648.22;;;11.06;50.87
37852;BME280;23691;52.486;4.650;2023-04-25T09:53:40;101642.34;;;11.30;50.22
37852;BME280;23691;52.486;4.650;2023-04-25T09:56:08;101626.34;;;11.56;50.25
37852;BME280;23691;52.486;4.650;2023-04-25T09:58:35;101646.56;;;11.51;50.64
37852;BME280;23691;52.486;4.650;2023-04-25T10:01:02;101649.47;;;11.39;51.17
37852;BME280;23691;52.486;4.650;2023-04-25T10:03:32;101649.47;;;11.39;51.54
37852;BME280;23691;52.486;4.650;2023-04-25T10:06:02;101659.28;;;11.49;51.70
37852;BME280;23691;52.486;4.650;2023-04-25T10:08:35;101650.41;;;11.66;52.13
37852;BME280;23691;52.486;4.650;2023-04-25T10:11:06;101655.34;;;11.89;51.64
37852;BME280;23691;52.486;4.650;2023-04-25T10:13:33;101660.28;;;12.37;51.03
37852;BME280;23691;52.486;4.650;2023-04-25T10:16:00;101657.47;;;12.65;51.06
37852;BME280;23691;52.486;4.650;2023-04-25T10:18:26;101655.84;;;12.46;51.43
37852;BME280;23691;52.486;4.650;2023-04-25T10:20:55;101663.34;;;12.16;51.60
37852;BME280;23691;52.486;4.650;2023-04-25T10:23:21;101664.25;;;11.89;51.45
37852;BME280;23691;52.486;4.650;2023-04-25T10:25:49;101673.19;;;11.62;51.44
37852;BME280;23691;52.486;4.650;2023-04-25T10:28:15;101672.94;;;11.55;51.17
37852;BME280;23691;52.486;4.650;2023-04-25T10:31:09;101682.13;;;11.71;50.60
37852;BME280;23691;52.486;4.650;2023-04-25T10:33:37;101678.69;;;11.78;50.21
37852;BME280;23691;52.486;4.650;2023-04-25T10:36:20;101697.34;;;11.98;50.36
37852;BME280;23691;52.486;4.650;2023-04-25T10:38:49;101699.06;;;11.99;50.41
37852;BME280;23691;52.486;4.650;2023-04-25T10:41:19;101715.97;;;11.99;50.98
37852;BME280;23691;52.486;4.650;2023-04-25T10:43:49;101722.59;;;11.77;50.65
37852;BME280;23691;52.486;4.650;2023-04-25T10:46:22;101720.84;;;11.58;50.76
37852;BME280;23691;52.486;4.650;2023-04-25T10:48:56;101704.88;;;11.67;50.21
37852;BME280;23691;52.486;4.650;2023-04-25T10:51:23;101690.66;;;11.84;50.20
37852;BME280;23691;52.486;4.650;2023-04-25T10:58:52;101700.88;;;11.98;48.96
37852;BME280;23691;52.486;4.650;2023-04-25T11:01:36;101688.31;;;11.99;48.98
37852;BME280;23691;52.486;4.650;2023-04-25T11:04:01;101700.50;;;12.11;48.97
37852;BME280;23691;52.486;4.650;2023-04-25T11:06:53;101694.03;;;12.40;49.09
37852;BME280;23691;52.486;4.650;2023-04-25T11:09:23;101698.91;;;12.88;48.64
37852;BME280;23691;52.486;4.650;2023-04-25T11:11:56;101694.56;;;12.96;48.87
37852;BME280;23691;52.486;4.650;2023-04-25T11:14:22;101702.16;;;12.48;50.16
37852;BME280;23691;52.486;4.650;2023-04-25T11:16:52;101706.72;;;12.12;51.04
37852;BME280;23691;52.486;4.650;2023-04-25T11:19:19;101705.31;;;12.08;51.16
37852;BME280;23691;52.486;4.650;2023-04-25T11:21:45;101702.81;;;12.06;50.64
37852;BME280;23691;52.486;4.650;2023-04-25T11:24:11;101717.81;;;12.17;49.70
37852;BME280;23691;52.486;4.650;2023-04-25T11:26:36;101712.31;;;12.18;49.42
37852;BME280;23691;52.486;4.650;2023-04-25T11:29:02;101712.63;;;12.33;48.23
37852;BME280;23691;52.486;4.650;2023-04-25T11:31:28;101707.53;;;12.30;47.91
37852;BME280;23691;52.486;4.650;2023-04-25T11:33:56;101708.16;;;12.24;47.27
37852;BME280;23691;52.486;4.650;2023-04-25T11:36:23;101706.78;;;12.02;47.86
37852;BME280;23691;52.486;4.650;2023-04-25T11:38:50;101712.66;;;12.06;47.90
37852;BME280;23691;52.486;4.650;2023-04-25T11:41:17;101704.41;;;12.17;48.15
37852;BME280;23691;52.486;4.650;2023-04-25T11:43:43;101709.78;;;12.17;48.23
37852;BME280;23691;52.486;4.650;2023-04-25T11:46:08;101709.31;;;12.21;48.58
37852;BME280;23691;52.486;4.650;2023-04-25T11:48:41;101707.53;;;12.30;48.77
37852;BME280;23691;52.486;4.650;2023-04-25T11:51:07;101708.59;;;12.37;48.25
37852;BME280;23691;52.486;4.650;2023-04-25T11:53:32;101713.19;;;12.45;48.23
37852;BME280;23691;52.486;4.650;2023-04-25T11:55:58;101722.16;;;12.54;48.00
37852;BME280;23691;52.486;4.650;2023-04-25T11:58:23;101721.84;;;12.57;47.51
37852;BME280;23691;52.486;4.650;2023-04-25T12:00:49;101720.06;;;12.65;47.26
37852;BME280;23691;52.486;4.650;2023-04-25T12:03:14;101722.06;;;12.63;47.06
37852;BME280;23691;52.486;4.650;2023-04-25T12:05:40;101718.19;;;12.58;46.95
37852;BME280;23691;52.486;4.650;2023-04-25T12:08:12;101725.13;;;12.68;47.12
37852;BME280;23691;52.486;4.650;2023-04-25T12:10:40;101739.31;;;12.87;46.80
37852;BME280;23691;52.486;4.650;2023-04-25T12:13:25;101748.50;;;13.02;46.43
37852;BME280;23691;52.486;4.650;2023-04-25T12:15:54;101729.91;;;13.09;46.45
37852;BME280;23691;52.486;4.650;2023-04-25T12:18:20;101729.16;;;13.25;46.23
37852;BME280;23691;52.486;4.650;2023-04-25T12:20:47;101730.94;;;13.42;46.25
37852;BME280;23691;52.486;4.650;2023-04-25T12:23:12;101733.31;;;13.53;46.63
37852;BME280;23691;52.486;4.650;2023-04-25T12:33:23;101746.84;;;13.27;45.71
37852;BME280;23691;52.486;4.650;2023-04-25T12:35:49;101746.56;;;13.13;45.78
37852;BME280;23691;52.486;4.650;2023-04-25T12:38:27;101744.53;;;13.41;45.55
37852;BME280;23691;52.486;4.650;2023-04-25T12:40:55;101747.16;;;13.67;44.97
37852;BME280;23691;52.486;4.650;2023-04-25T12:43:21;101743.66;;;13.74;44.52
37852;BME280;23691;52.486;4.650;2023-04-25T12:45:51;101749.03;;;13.74;43.93
37852;BME280;23691;52.486;4.650;2023-04-25T12:48:17;101763.69;;;13.38;44.42
37852;BME280;23691;52.486;4.650;2023-04-25T12:50:43;101761.03;;;13.46;44.18
37852;BME280;23691;52.486;4.650;2023-04-25T12:53:08;101752.56;;;13.32;44.65
37852;BME280;23691;52.486;4.650;2023-04-25T12:55:34;101759.16;;;13.12;45.23
37852;BME280;23691;52.486;4.650;2023-04-25T12:58:00;101760.91;;;12.77;45.85
37852;BME280;23691;52.486;4.650;2023-04-25T13:00:29;101769.09;;;12.67;45.59
37852;BME280;23691;52.486;4.650;2023-04-25T13:02:54;101760.44;;;12.56;45.59
37852;BME280;23691;52.486;4.650;2023-04-25T13:05:20;101761.03;;;12.67;45.74
37852;BME280;23691;52.486;4.650;2023-04-25T13:07:45;101764.34;;;13.14;44.67